YTMS weather

Tambar Springs Airport
New South Wales, Australia

Public forecast

Using degrees Celsius for public forecast. Weather courtesy of forecast.io.

METAR (pilot weather report)

Closest report is Coonabarabran Airport, 29.8 nm (55.1 km) W. Retrieved 2019/06/17 20:00 UTC (42 seconds ago):

YCBB 172000Z AUTO 26003KT 9999 // OVC025 08/06 Q1020

TAF (pilot weather forecast)

Closest forecast is Tamworth Airport, 53.2 nm (98.5 km) ENE. Retrieved 2019/06/17 18:36 UTC (1 hour ago):

TAF YSTW 171704Z 1718/1812 VRB03KT 9999 SCT022 BKN035 FM180000 27005KT 9999 BKN035 FM180600 24005KT 9999 SCT040